createdAt,value
2023-04-12T00:01:27.680Z,98991.38
2023-04-12T00:03:55.898Z,98987.02
2023-04-12T00:06:25.386Z,98984.21
2023-04-12T00:08:54.174Z,98983.92
2023-04-12T00:11:22.625Z,98980.11
2023-04-12T00:13:50.666Z,98978.31
2023-04-12T00:16:19.654Z,98978.48
2023-04-12T00:18:48.951Z,98976.60
2023-04-12T00:21:20.316Z,98968.75
2023-04-12T00:23:49.651Z,98971.27
2023-04-12T00:26:17.659Z,98968.98
2023-04-12T00:28:46.022Z,98964.06
2023-04-12T00:31:15.045Z,98962.25
2023-04-12T00:33:44.125Z,98958.75
2023-04-12T00:36:15.948Z,98957.08
2023-04-12T00:38:47.711Z,98951.50
2023-04-12T00:41:15.818Z,98949.50
2023-04-12T00:43:47.362Z,98945.14
2023-04-12T00:46:17.745Z,98942.87
2023-04-12T00:48:48.086Z,98941.79
2023-04-12T00:51:20.653Z,98944.89
2023-04-12T00:53:48.973Z,98947.20
2023-04-12T00:56:18.075Z,98948.92
2023-04-12T00:58:45.973Z,98948.07
2023-04-12T01:01:19.461Z,98948.91
2023-04-12T01:03:48.333Z,98944.30
2023-04-12T01:06:18.753Z,98942.99
2023-04-12T01:09:02.425Z,98943.11
2023-04-12T01:11:37.422Z,98940.86
2023-04-12T01:14:10.120Z,98940.41
2023-04-12T01:16:58.799Z,98936.44
2023-04-12T01:19:34.925Z,98933.19
2023-04-12T01:22:07.516Z,98926.19
2023-04-12T01:25:00.313Z,98929.50
2023-04-12T01:27:31.007Z,98925.52
2023-04-12T01:29:59.259Z,98921.59
2023-04-12T01:32:28.877Z,98918.17
2023-04-12T01:34:57.955Z,98914.95
2023-04-12T01:37:28.846Z,98911.23
2023-04-12T01:39:57.294Z,98908.73
2023-04-12T01:42:25.608Z,98909.20
2023-04-12T01:44:54.140Z,98903.95
2023-04-12T01:47:22.615Z,98900.73
2023-04-12T01:49:59.668Z,98896.81
2023-04-12T01:52:27.558Z,98893.68
2023-04-12T01:54:57.659Z,98889.73
2023-04-12T01:57:25.730Z,98886.33
2023-04-12T01:59:54.407Z,98882.23
2023-04-12T02:02:30.086Z,98877.92
2023-04-12T02:04:59.794Z,98877.66
2023-04-12T02:07:28.001Z,98878.15
2023-04-12T02:10:02.879Z,98873.09
2023-04-12T02:12:31.736Z,98871.85
2023-04-12T02:15:00.305Z,98866.26
2023-04-12T02:17:33.498Z,98866.63
2023-04-12T02:20:02.473Z,98862.59
2023-04-12T02:22:31.632Z,98859.42
2023-04-12T02:25:02.325Z,98858.88
2023-04-12T02:27:31.681Z,98852.84
2023-04-12T02:30:01.124Z,98856.82
2023-04-12T02:32:32.909Z,98856.13
2023-04-12T02:35:02.823Z,98849.77
2023-04-12T02:37:31.860Z,98850.58
2023-04-12T02:40:02.477Z,98847.36
2023-04-12T02:42:31.854Z,98848.02
2023-04-12T02:44:59.999Z,98844.75
2023-04-12T02:47:30.775Z,98847.80
2023-04-12T02:50:00.184Z,98844.52
2023-04-12T02:52:30.045Z,98839.85
2023-04-12T02:55:15.916Z,98839.04
2023-04-12T02:57:49.481Z,98838.27
2023-04-12T03:00:18.756Z,98835.67
2023-04-12T03:03:13.044Z,98830.84
2023-04-12T03:05:50.205Z,98828.48
2023-04-12T03:08:21.670Z,98828.44
2023-04-12T03:10:55.551Z,98828.83
2023-04-12T03:13:24.723Z,98825.13
2023-04-12T03:15:57.140Z,98824.67
2023-04-12T03:18:30.102Z,98821.98
2023-04-12T03:21:02.561Z,98821.50
2023-04-12T03:23:31.405Z,98818.06
2023-04-12T03:26:07.717Z,98815.42
2023-04-12T03:28:39.281Z,98816.55
2023-04-12T03:31:08.240Z,98811.84
2023-04-12T03:33:41.614Z,98808.66
2023-04-12T03:36:16.800Z,98806.77
2023-04-12T03:38:45.816Z,98804.02
2023-04-12T03:41:14.193Z,98801.32
2023-04-12T03:43:42.801Z,98798.33
2023-04-12T03:46:18.151Z,98798.04
2023-04-12T03:48:49.304Z,98801.52
2023-04-12T03:51:17.550Z,98803.08
2023-04-12T03:53:47.235Z,98798.67
2023-04-12T03:56:16.897Z,98798.10
2023-04-12T03:58:47.179Z,98795.96
2023-04-12T04:01:18.032Z,98798.26
2023-04-12T04:03:48.574Z,98798.14
2023-04-12T04:06:25.916Z,98796.59
2023-04-12T04:08:59.869Z,98797.11
2023-04-12T04:11:28.340Z,98794.01
2023-04-12T04:14:01.975Z,98799.16
2023-04-12T04:16:31.067Z,98799.60
2023-04-12T04:19:02.244Z,98799.03
2023-04-12T04:21:32.332Z,98794.38
2023-04-12T04:24:02.488Z,98794.00
2023-04-12T04:26:38.600Z,98791.05
2023-04-12T04:29:17.026Z,98790.41
2023-04-12T04:31:48.330Z,98790.98
2023-04-12T04:34:25.783Z,98791.00
2023-04-12T04:37:01.398Z,98790.43
2023-04-12T04:39:36.448Z,98791.51
2023-04-12T04:42:06.894Z,98787.61
2023-04-12T04:44:47.926Z,98787.61
2023-04-12T04:47:18.310Z,98789.55
2023-04-12T04:49:54.353Z,98790.66
2023-04-12T04:52:29.521Z,98783.02
2023-04-12T04:55:06.902Z,98787.05
2023-04-12T04:57:44.607Z,98784.33
2023-04-12T05:00:18.431Z,98784.91
2023-04-12T05:03:00.597Z,98784.37
2023-04-12T05:05:37.421Z,98785.02
2023-04-12T05:08:18.322Z,98784.67
2023-04-12T05:10:55.953Z,98785.30
2023-04-12T05:13:29.443Z,98784.38
2023-04-12T05:16:00.348Z,98783.23
2023-04-12T05:18:39.470Z,98787.06
2023-04-12T05:21:09.568Z,98787.35
2023-04-12T05:31:23.365Z,98773.91
2023-04-12T05:33:54.631Z,98773.30
2023-04-12T05:36:26.329Z,98774.11
2023-04-12T05:38:55.650Z,98771.23
2023-04-12T05:41:24.582Z,98767.77
2023-04-12T05:43:54.146Z,98771.11
2023-04-12T05:46:30.727Z,98766.83
2023-04-12T05:48:59.472Z,98764.46
2023-04-12T05:51:40.522Z,98763.82
2023-04-12T05:54:15.984Z,98763.29
2023-04-12T05:56:44.118Z,98762.64
2023-04-12T05:59:19.734Z,98760.40
2023-04-12T06:01:50.083Z,98758.38
2023-04-12T06:04:21.135Z,98756.39
2023-04-12T06:06:52.561Z,98751.45
2023-04-12T06:09:20.964Z,98751.98
2023-04-12T06:11:49.009Z,98750.89
2023-04-12T06:14:18.366Z,98750.08
2023-04-12T06:16:47.557Z,98747.63
2023-04-12T06:19:15.500Z,98748.64
2023-04-12T06:21:45.229Z,98747.42
2023-04-12T06:24:13.330Z,98747.20
2023-04-12T06:26:43.219Z,98742.56
2023-04-12T06:29:13.394Z,98742.60
2023-04-12T06:31:41.841Z,98737.46
2023-04-12T06:34:10.171Z,98736.06
2023-04-12T06:36:42.135Z,98729.02
2023-04-12T06:39:12.364Z,98731.20
2023-04-12T06:41:40.756Z,98728.84
2023-04-12T06:44:12.017Z,98727.70
2023-04-12T06:46:39.982Z,98732.48
2023-04-12T06:49:08.438Z,98730.17
2023-04-12T06:51:36.760Z,98730.56
2023-04-12T06:54:05.150Z,98730.56
2023-04-12T06:56:33.559Z,98731.27
2023-04-12T06:59:01.534Z,98728.86
2023-04-12T07:01:29.803Z,98728.43
2023-04-12T07:03:58.773Z,98728.69
2023-04-12T07:06:27.911Z,98725.42
2023-04-12T07:09:00.272Z,98725.25
2023-04-12T07:11:28.872Z,98724.66
2023-04-12T07:14:01.489Z,98722.58
2023-04-12T07:16:31.540Z,98722.63
2023-04-12T07:19:00.740Z,98724.67
2023-04-12T07:21:33.367Z,98726.14
2023-04-12T07:24:01.721Z,98725.19
2023-04-12T07:26:31.470Z,98721.88
2023-04-12T07:29:02.909Z,98715.59
2023-04-12T07:31:31.145Z,98713.18
2023-04-12T07:33:59.176Z,98712.81
2023-04-12T07:36:27.506Z,98713.79
2023-04-12T07:38:56.212Z,98717.16
2023-04-12T07:41:27.332Z,98715.38
2023-04-12T07:43:55.643Z,98719.88
2023-04-12T07:46:23.751Z,98718.76
2023-04-12T07:48:52.433Z,98716.08
2023-04-12T07:51:20.903Z,98711.41
2023-04-12T07:53:53.338Z,98712.64
2023-04-12T07:56:21.701Z,98714.73
2023-04-12T07:58:50.358Z,98712.33
2023-04-12T08:01:22.791Z,98713.23
2023-04-12T08:03:51.866Z,98711.80
2023-04-12T08:06:19.963Z,98708.56
2023-04-12T08:08:48.222Z,98710.60
2023-04-12T08:11:16.525Z,98710.55
2023-04-12T08:13:51.869Z,98707.28
2023-04-12T08:16:25.080Z,98709.21
2023-04-12T08:18:56.575Z,98704.61
2023-04-12T08:21:26.097Z,98704.70
2023-04-12T08:23:54.150Z,98702.89
2023-04-12T08:26:22.649Z,98702.55
2023-04-12T08:28:51.520Z,98700.36
2023-04-12T08:31:20.751Z,98703.04
2023-04-12T08:33:49.659Z,98701.65
2023-04-12T08:36:18.887Z,98703.52
2023-04-12T08:38:52.938Z,98698.80
2023-04-12T08:41:23.694Z,98699.45
2023-04-12T08:43:51.952Z,98693.06
2023-04-12T08:46:21.158Z,98684.63
2023-04-12T08:48:57.872Z,98690.86
2023-04-12T08:51:27.153Z,98689.36
2023-04-12T08:53:55.668Z,98687.06
2023-04-12T08:56:33.540Z,98684.48
2023-04-12T08:59:01.936Z,98681.58
2023-04-12T09:01:30.144Z,98680.11
2023-04-12T09:04:06.472Z,98678.28
2023-04-12T09:06:35.678Z,98677.92
2023-04-12T09:09:08.144Z,98673.65
2023-04-12T09:11:43.321Z,98669.31
2023-04-12T09:14:24.429Z,98665.89
2023-04-12T09:16:52.897Z,98667.33
2023-04-12T09:19:48.246Z,98668.83
2023-04-12T09:22:17.091Z,98664.84
2023-04-12T09:24:50.183Z,98661.73
2023-04-12T09:27:21.078Z,98661.61
2023-04-12T09:29:52.410Z,98660.17
2023-04-12T09:32:34.047Z,98661.05
2023-04-12T09:35:03.002Z,98658.84
2023-04-12T09:37:31.481Z,98657.92
2023-04-12T09:40:05.309Z,98653.69
2023-04-12T09:42:35.072Z,98656.46
2023-04-12T09:45:19.522Z,98653.89
2023-04-12T09:47:48.345Z,98654.15
2023-04-12T09:50:23.693Z,98654.42
2023-04-12T09:52:58.561Z,98653.78
2023-04-12T09:55:28.438Z,98655.06
2023-04-12T09:57:56.563Z,98654.56
2023-04-12T10:00:27.285Z,98653.19
2023-04-12T10:02:57.015Z,98653.23
2023-04-12T10:05:26.551Z,98652.80
2023-04-12T10:07:55.611Z,98649.48
2023-04-12T10:10:25.050Z,98647.42
2023-04-12T10:12:53.057Z,98647.06
2023-04-12T10:15:22.289Z,98650.98
2023-04-12T10:17:58.875Z,98651.26
2023-04-12T10:20:29.222Z,98652.09
2023-04-12T10:22:59.751Z,98652.58
2023-04-12T10:25:31.245Z,98650.55
2023-04-12T10:28:13.338Z,98652.91
2023-04-12T10:30:43.038Z,98650.23
2023-04-12T10:33:32.217Z,98648.88
2023-04-12T10:36:11.278Z,98648.67
2023-04-12T10:39:07.700Z,98647.86
2023-04-12T10:41:36.353Z,98644.67
2023-04-12T10:44:23.330Z,98641.98
2023-04-12T10:46:51.586Z,98645.95
2023-04-12T10:49:20.226Z,98643.54
2023-04-12T10:52:11.573Z,98640.09
2023-04-12T10:54:39.665Z,98639.96
2023-04-12T10:57:30.250Z,98636.85
2023-04-12T10:59:59.704Z,98641.52
2023-04-12T11:02:28.821Z,98641.44
2023-04-12T11:05:05.684Z,98641.05
2023-04-12T11:08:15.958Z,98642.77
2023-04-12T11:11:02.350Z,98641.63
2023-04-12T11:13:36.201Z,98638.31
2023-04-12T11:16:06.468Z,98637.77
2023-04-12T11:18:36.649Z,98639.81
2023-04-12T11:21:05.326Z,98635.63
2023-04-12T11:23:54.733Z,98639.54
2023-04-12T11:26:22.914Z,98636.71
2023-04-12T11:28:53.441Z,98633.95
2023-04-12T11:31:23.392Z,98631.39
2023-04-12T11:33:51.730Z,98634.41
2023-04-12T11:36:19.906Z,98634.61
2023-04-12T11:38:50.390Z,98628.69
2023-04-12T11:41:18.921Z,98628.11
2023-04-12T11:43:47.418Z,98628.05
2023-04-12T11:46:18.740Z,98628.20
2023-04-12T11:48:47.387Z,98629.52
2023-04-12T11:51:18.929Z,98625.81
2023-04-12T11:53:52.379Z,98623.23
2023-04-12T11:56:21.027Z,98623.60
2023-04-12T11:58:49.274Z,98625.46
2023-04-12T12:01:18.161Z,98623.74
2023-04-12T12:03:47.374Z,98621.17
2023-04-12T12:06:15.733Z,98621.08
2023-04-12T12:08:44.087Z,98616.61
2023-04-12T12:11:12.107Z,98614.03
2023-04-12T12:13:49.449Z,98614.84
2023-04-12T12:16:17.828Z,98611.56
2023-04-12T12:18:46.957Z,98607.64
2023-04-12T12:21:15.223Z,98605.01
2023-04-12T12:23:45.862Z,98600.59
2023-04-12T12:26:21.169Z,98599.09
2023-04-12T12:28:53.198Z,98596.66
2023-04-12T12:31:24.015Z,98595.66
2023-04-12T12:33:57.325Z,98594.04
2023-04-12T12:36:29.480Z,98593.79
2023-04-12T12:38:59.814Z,98592.82
2023-04-12T12:41:28.012Z,98592.42
2023-04-12T12:43:56.540Z,98582.90
2023-04-12T12:46:26.469Z,98579.45
2023-04-12T12:48:59.749Z,98578.64
2023-04-12T12:51:27.976Z,98575.14
2023-04-12T12:53:56.543Z,98579.86
2023-04-12T12:56:31.544Z,98573.38
2023-04-12T12:59:00.053Z,98573.54
2023-04-12T13:01:28.429Z,98563.92
2023-04-12T13:03:56.917Z,98565.15
2023-04-12T13:06:28.256Z,98567.28
2023-04-12T13:08:56.615Z,98562.77
2023-04-12T13:11:29.909Z,98564.11
2023-04-12T13:13:58.967Z,98560.48
2023-04-12T13:16:27.239Z,98562.55
2023-04-12T13:18:56.222Z,98558.02
2023-04-12T13:21:24.991Z,98562.29
2023-04-12T13:23:53.162Z,98559.39
2023-04-12T13:26:21.088Z,98561.87
2023-04-12T13:28:49.188Z,98560.46
2023-04-12T13:31:20.778Z,98556.42
2023-04-12T13:33:48.910Z,98559.02
2023-04-12T13:36:17.146Z,98561.30
2023-04-12T13:38:45.922Z,98561.45
2023-04-12T13:41:14.243Z,98564.05
2023-04-12T13:43:42.894Z,98562.58
2023-04-12T13:46:13.208Z,98568.50
2023-04-12T13:48:42.144Z,98564.36
2023-04-12T13:51:10.390Z,98568.76
2023-04-12T13:53:45.608Z,98570.42
2023-04-12T13:56:13.796Z,98567.59
2023-04-12T13:58:43.004Z,98570.64
2023-04-12T14:01:11.055Z,98572.95
2023-04-12T14:03:40.876Z,98574.59
2023-04-12T14:06:09.922Z,98573.30
2023-04-12T14:08:38.406Z,98577.58
2023-04-12T14:11:07.940Z,98579.95
2023-04-12T14:13:37.029Z,98579.09
2023-04-12T14:16:05.363Z,98584.98
2023-04-12T14:18:38.076Z,98585.80
2023-04-12T14:21:06.562Z,98586.58
2023-04-12T14:23:34.831Z,98580.95
2023-04-12T14:26:03.739Z,98582.38
2023-04-12T14:28:34.979Z,98584.75
2023-04-12T14:31:06.222Z,98580.85
2023-04-12T14:33:37.883Z,98576.46
2023-04-12T14:36:06.299Z,98578.55
2023-04-12T14:38:39.023Z,98578.80
2023-04-12T14:41:07.384Z,98580.66
2023-04-12T14:43:36.068Z,98582.19
2023-04-12T14:46:04.224Z,98580.84
2023-04-12T14:48:34.142Z,98579.49
2023-04-12T14:51:03.687Z,98582.88
2023-04-12T14:53:33.289Z,98579.72
2023-04-12T14:56:02.767Z,98579.96
2023-04-12T14:58:37.109Z,98580.48
2023-04-12T15:01:05.539Z,98579.80
2023-04-12T15:03:36.078Z,98575.34
2023-04-12T15:06:08.847Z,98577.59
2023-04-12T15:08:43.331Z,98576.20
2023-04-12T15:11:11.672Z,98574.39
2023-04-12T15:13:40.068Z,98577.60
2023-04-12T15:16:17.719Z,98575.92
2023-04-12T15:18:50.572Z,98571.64
2023-04-12T15:21:18.760Z,98572.54
2023-04-12T15:23:48.672Z,98570.48
2023-04-12T15:26:17.312Z,98571.27
2023-04-12T15:28:45.535Z,98567.90
2023-04-12T15:31:18.965Z,98569.79
2023-04-12T15:33:49.775Z,98568.45
2023-04-12T15:36:20.556Z,98568.70
2023-04-12T15:38:48.561Z,98571.89
2023-04-12T15:41:16.680Z,98571.73
2023-04-12T15:43:49.498Z,98574.33
2023-04-12T15:46:25.896Z,98574.66
2023-04-12T15:49:02.559Z,98574.75
2023-04-12T15:51:32.448Z,98572.34
2023-04-12T15:54:00.667Z,98572.84
2023-04-12T15:56:29.994Z,98570.13
2023-04-12T15:58:59.277Z,98575.41
2023-04-12T16:01:28.619Z,98575.67
2023-04-12T16:03:58.128Z,98573.09
2023-04-12T16:06:26.965Z,98576.44
2023-04-12T16:08:57.671Z,98579.31
2023-04-12T16:11:26.070Z,98578.89
2023-04-12T16:13:54.991Z,98577.41
2023-04-12T16:16:26.015Z,98577.24
2023-04-12T16:18:57.491Z,98580.80
2023-04-12T16:21:26.820Z,98580.01
2023-04-12T16:23:55.620Z,98581.61
2023-04-12T16:26:23.778Z,98583.71
2023-04-12T16:28:53.564Z,98583.56
2023-04-12T16:31:22.975Z,98583.86
2023-04-12T16:34:00.697Z,98585.89
2023-04-12T16:36:31.542Z,98584.44
2023-04-12T16:39:01.680Z,98591.27
2023-04-12T16:41:30.046Z,98591.27
2023-04-12T16:43:59.509Z,98595.41
2023-04-12T16:46:30.227Z,98595.07
2023-04-12T16:48:59.774Z,98596.15
2023-04-12T16:51:37.408Z,98597.73
2023-04-12T16:54:06.571Z,98599.77
2023-04-12T16:56:35.568Z,98602.89
2023-04-12T16:59:04.796Z,98603.34
2023-04-12T17:01:36.216Z,98609.77
2023-04-12T17:04:04.926Z,98611.45
2023-04-12T17:06:34.368Z,98609.55
2023-04-12T17:09:05.939Z,98613.80
2023-04-12T17:11:35.436Z,98617.71
2023-04-12T17:14:04.164Z,98620.59
2023-04-12T17:16:35.685Z,98623.98
2023-04-12T17:19:06.892Z,98624.23
2023-04-12T17:21:42.515Z,98627.30
2023-04-12T17:24:12.531Z,98629.05
2023-04-12T17:26:41.155Z,98634.63
2023-04-12T17:29:09.536Z,98634.50
2023-04-12T17:31:39.768Z,98641.92
2023-04-12T17:34:09.391Z,98644.24
2023-04-12T17:36:38.437Z,98646.69
2023-04-12T17:39:06.812Z,98644.55
2023-04-12T17:41:37.501Z,98652.23
2023-04-12T17:44:08.390Z,98651.33
2023-04-12T17:46:38.465Z,98648.14
2023-04-12T17:49:06.987Z,98654.03
2023-04-12T17:51:35.234Z,98645.73
2023-04-12T17:54:06.878Z,98647.89
2023-04-12T17:56:36.349Z,98644.92
2023-04-12T17:59:05.939Z,98648.49
2023-04-12T18:01:36.679Z,98650.39
2023-04-12T18:04:07.372Z,98656.63
2023-04-12T18:06:36.716Z,98650.84
2023-04-12T18:09:09.597Z,98649.98
2023-04-12T18:11:39.158Z,98649.25
2023-04-12T18:14:08.826Z,98648.98
2023-04-12T18:16:41.003Z,98647.53
2023-04-12T18:19:10.241Z,98642.54
2023-04-12T18:21:40.023Z,98639.96
2023-04-12T18:24:08.450Z,98642.36
2023-04-12T18:26:37.127Z,98641.52
2023-04-12T18:29:05.103Z,98637.30
2023-04-12T18:31:33.305Z,98639.63
2023-04-12T18:34:02.237Z,98641.56
2023-04-12T18:36:31.721Z,98637.77
2023-04-12T18:38:59.859Z,98631.33
2023-04-12T18:41:29.051Z,98629.28
2023-04-12T18:43:57.784Z,98624.98
2023-04-12T18:46:27.276Z,98625.70
2023-04-12T18:48:58.791Z,98622.80
2023-04-12T18:51:26.935Z,98621.39
2023-04-12T18:53:54.950Z,98624.45
2023-04-12T18:56:25.000Z,98625.73
2023-04-12T18:58:55.712Z,98628.98
2023-04-12T19:01:25.273Z,98628.54
2023-04-12T19:03:55.045Z,98626.48
2023-04-12T19:06:23.896Z,98627.44
2023-04-12T19:08:52.235Z,98628.13
2023-04-12T19:11:24.801Z,98625.36
2023-04-12T19:13:56.335Z,98627.88
2023-04-12T19:16:25.233Z,98628.08
2023-04-12T19:18:54.713Z,98629.80
2023-04-12T19:21:24.229Z,98632.77
2023-04-12T19:23:53.346Z,98631.73
2023-04-12T19:26:23.202Z,98626.15
2023-04-12T19:28:55.626Z,98622.59
2023-04-12T19:31:24.003Z,98624.02
2023-04-12T19:33:56.635Z,98626.23
2023-04-12T19:36:25.803Z,98629.02
2023-04-12T19:38:55.039Z,98628.91
2023-04-12T19:41:24.137Z,98627.33
2023-04-12T19:43:54.653Z,98624.27
2023-04-12T19:46:22.710Z,98620.52
2023-04-12T19:48:51.452Z,98612.75
2023-04-12T19:51:19.725Z,98607.31
2023-04-12T19:53:50.560Z,98604.52
2023-04-12T19:56:18.701Z,98608.67
2023-04-12T19:58:47.896Z,98607.60
2023-04-12T20:01:16.139Z,98603.45
2023-04-12T20:03:44.923Z,98600.69
2023-04-12T20:06:13.303Z,98600.30
2023-04-12T20:08:41.586Z,98604.06
2023-04-12T20:11:09.946Z,98603.09
2023-04-12T20:13:39.938Z,98603.58
2023-04-12T20:16:10.096Z,98601.56
2023-04-12T20:18:38.199Z,98605.74
2023-04-12T20:21:10.112Z,98600.36
2023-04-12T20:23:38.244Z,98602.41
2023-04-12T20:26:06.467Z,98605.45
2023-04-12T20:28:34.603Z,98606.34
2023-04-12T20:31:03.030Z,98607.87
2023-04-12T20:33:31.242Z,98610.02
2023-04-12T20:35:59.718Z,98611.86
2023-04-12T20:38:30.820Z,98614.70
2023-04-12T20:41:01.538Z,98610.25
2023-04-12T20:43:31.958Z,98609.91
2023-04-12T20:46:00.975Z,98611.13
2023-04-12T20:48:29.931Z,98606.71
2023-04-12T20:50:58.184Z,98601.81
2023-04-12T20:53:27.277Z,98598.48
2023-04-12T20:55:56.452Z,98597.59
2023-04-12T20:58:34.514Z,98596.23
2023-04-12T21:01:05.229Z,98597.64
2023-04-12T21:03:34.521Z,98600.29
2023-04-12T21:06:02.612Z,98600.02
2023-04-12T21:08:33.845Z,98599.80
2023-04-12T21:11:02.259Z,98593.83
2023-04-12T21:13:30.512Z,98591.63
2023-04-12T21:15:59.013Z,98594.05
2023-04-12T21:18:28.351Z,98597.45
2023-04-12T21:20:58.621Z,98598.48
2023-04-12T21:23:30.643Z,98601.38
2023-04-12T21:25:59.282Z,98602.51
2023-04-12T21:28:29.774Z,98598.00
2023-04-12T21:30:58.627Z,98598.80
2023-04-12T21:33:26.759Z,98596.81
2023-04-12T21:35:54.787Z,98595.55
2023-04-12T21:38:23.284Z,98594.30
2023-04-12T21:40:51.684Z,98593.80
2023-04-12T21:43:21.169Z,98595.64
2023-04-12T21:45:49.379Z,98592.89
2023-04-12T21:48:18.031Z,98593.88
2023-04-12T21:50:46.223Z,98595.39
2023-04-12T21:53:14.348Z,98598.32
2023-04-12T21:55:42.814Z,98594.77
2023-04-12T21:58:11.697Z,98585.86
2023-04-12T22:00:42.920Z,98584.11
2023-04-12T22:03:11.656Z,98586.82
2023-04-12T22:05:57.164Z,98584.81
2023-04-12T22:08:33.220Z,98584.44
2023-04-12T22:11:01.511Z,98585.71
2023-04-12T22:13:30.981Z,98585.23
2023-04-12T22:16:00.872Z,98585.40
2023-04-12T22:18:32.056Z,98586.27
2023-04-12T22:21:04.154Z,98586.48
2023-04-12T22:23:32.156Z,98586.33
2023-04-12T22:26:00.315Z,98586.25
2023-04-12T22:28:33.016Z,98577.40
2023-04-12T22:31:02.401Z,98580.00
2023-04-12T22:33:30.750Z,98576.73
2023-04-12T22:35:59.618Z,98572.81
2023-04-12T22:38:29.425Z,98570.98
2023-04-12T22:41:02.170Z,98566.84
2023-04-12T22:43:38.071Z,98568.88
2023-04-12T22:46:08.222Z,98570.25
2023-04-12T22:48:36.479Z,98574.55
2023-04-12T22:51:11.816Z,98577.52
2023-04-12T22:53:40.632Z,98579.69
2023-04-12T22:56:09.142Z,98577.34
2023-04-12T22:58:37.600Z,98568.42
2023-04-12T23:01:05.859Z,98563.08
2023-04-12T23:03:35.045Z,98562.27
2023-04-12T23:06:07.743Z,98564.55
2023-04-12T23:08:35.946Z,98558.25
2023-04-12T23:11:04.880Z,98560.14
2023-04-12T23:13:34.879Z,98560.95
2023-04-12T23:16:08.499Z,98556.98
2023-04-12T23:18:37.894Z,98550.45
2023-04-12T23:21:06.696Z,98537.17
2023-04-12T23:23:39.415Z,98529.48
2023-04-12T23:26:10.822Z,98523.03
2023-04-12T23:28:40.404Z,98516.38
2023-04-12T23:31:08.813Z,98514.92
2023-04-12T23:33:43.274Z,98509.60
2023-04-12T23:36:11.825Z,98511.43
2023-04-12T23:38:40.888Z,98512.02
2023-04-12T23:41:10.190Z,98512.90
2023-04-12T23:43:38.178Z,98521.51
2023-04-12T23:46:06.913Z,98526.17
2023-04-12T23:48:36.361Z,98525.38
2023-04-12T23:51:04.778Z,98519.55
2023-04-12T23:53:33.876Z,98513.73
2023-04-12T23:56:02.044Z,98512.95
2023-04-12T23:58:30.608Z,98517.55
